createdAt,value
2018-12-05T00:04:00.272Z,2.70
2018-12-05T00:08:04.867Z,2.80
2018-12-05T00:12:10.179Z,2.90
2018-12-05T00:16:16.066Z,3.00
2018-12-05T00:20:21.659Z,3.00
2018-12-05T00:24:25.954Z,3.00
2018-12-05T00:28:30.578Z,3.10
2018-12-05T00:32:35.593Z,3.30
2018-12-05T00:36:41.731Z,3.30
2018-12-05T00:40:46.647Z,3.30
2018-12-05T00:44:52.063Z,3.30
2018-12-05T00:48:56.831Z,3.20
2018-12-05T00:53:02.076Z,3.20
2018-12-05T00:57:07.743Z,3.30
2018-12-05T01:01:13.959Z,3.20
2018-12-05T01:05:18.967Z,3.20
2018-12-05T01:09:23.736Z,3.10
2018-12-05T01:13:29.088Z,2.90
2018-12-05T01:17:33.701Z,2.80
2018-12-05T01:21:38.514Z,2.60
2018-12-05T01:25:45.484Z,2.40
2018-12-05T01:29:50.352Z,2.20
2018-12-05T01:33:56.027Z,2.10
2018-12-05T01:38:01.085Z,1.90
2018-12-05T01:42:05.936Z,1.80
2018-12-05T01:46:10.924Z,1.70
2018-12-05T01:50:18.677Z,1.80
2018-12-05T01:54:22.974Z,1.60
2018-12-05T01:58:28.329Z,1.70
2018-12-05T02:02:34.410Z,1.50
2018-12-05T02:06:39.253Z,1.60
2018-12-05T02:10:44.483Z,1.40
2018-12-05T02:14:49.961Z,1.30
2018-12-05T02:18:54.551Z,1.10
2018-12-05T02:22:59.770Z,1.00
2018-12-05T02:27:05.424Z,0.80
2018-12-05T02:31:10.087Z,0.70
2018-12-05T02:35:14.728Z,0.60
2018-12-05T02:39:19.257Z,0.50
2018-12-05T02:43:25.049Z,0.40
2018-12-05T02:47:29.898Z,0.30
2018-12-05T02:51:34.903Z,0.30
2018-12-05T02:55:40.894Z,0.20
2018-12-05T02:59:46.200Z,0.00
2018-12-05T03:03:50.833Z,0.00
2018-12-05T03:07:56.713Z,0.20
2018-12-05T03:12:02.094Z,-0.30
2018-12-05T03:16:07.753Z,-0.10
2018-12-05T03:20:12.316Z,-0.20
2018-12-05T03:24:16.970Z,-0.60
2018-12-05T03:28:22.081Z,-0.30
2018-12-05T03:32:27.127Z,-0.20
2018-12-05T03:36:31.799Z,-0.20
2018-12-05T03:40:37.276Z,-0.20
2018-12-05T03:44:41.660Z,0.10
2018-12-05T03:48:47.124Z,-0.50
2018-12-05T03:52:52.025Z,0.10
2018-12-05T03:56:56.716Z,0.00
2018-12-05T04:01:02.063Z,-0.10
2018-12-05T04:05:07.434Z,0.10
2018-12-05T04:09:11.782Z,-0.40
2018-12-05T04:13:17.265Z,-0.10
2018-12-05T04:17:21.624Z,0.00
2018-12-05T04:21:26.131Z,0.10
2018-12-05T04:25:30.965Z,0.00
2018-12-05T04:29:36.745Z,-0.20
2018-12-05T04:33:41.639Z,-0.40
2018-12-05T04:37:48.344Z,-0.30
2018-12-05T04:41:53.354Z,-0.50
2018-12-05T04:45:58.367Z,-0.60
2018-12-05T04:50:03.617Z,-0.60
2018-12-05T04:54:08.191Z,-0.50
2018-12-05T04:58:13.741Z,-0.60
2018-12-05T05:02:19.491Z,-0.90
2018-12-05T05:06:24.153Z,-1.00
2018-12-05T05:10:29.308Z,-1.00
2018-12-05T05:14:35.149Z,-1.00
2018-12-05T05:18:40.516Z,-0.90
2018-12-05T05:22:45.655Z,-0.80
2018-12-05T05:26:50.016Z,-0.80
2018-12-05T05:30:55.287Z,-0.70
2018-12-05T05:35:00.222Z,-0.70
2018-12-05T05:39:07.557Z,-0.70
2018-12-05T05:43:12.538Z,-0.70
2018-12-05T05:47:18.267Z,-0.60
2018-12-05T05:51:23.213Z,-0.50
2018-12-05T05:55:27.906Z,-0.40
2018-12-05T05:59:32.479Z,-0.40
2018-12-05T06:03:37.176Z,-0.30
2018-12-05T06:07:42.124Z,-0.40
2018-12-05T06:11:47.001Z,-0.50
2018-12-05T06:15:52.063Z,-0.50
2018-12-05T06:19:56.537Z,-0.50
2018-12-05T06:24:01.530Z,-0.40
2018-12-05T06:28:06.273Z,-0.40
2018-12-05T06:32:11.170Z,-0.20
2018-12-05T06:36:16.322Z,-0.20
2018-12-05T06:40:21.971Z,-0.30
2018-12-05T06:44:27.949Z,-0.10
2018-12-05T06:48:32.862Z,0.10
2018-12-05T06:52:37.213Z,-0.20
2018-12-05T06:56:41.649Z,0.20
2018-12-05T07:00:46.506Z,0.20
2018-12-05T07:04:50.860Z,0.20
2018-12-05T07:08:55.554Z,0.00
2018-12-05T07:13:00.483Z,0.00
2018-12-05T07:17:04.664Z,0.40
2018-12-05T07:21:09.990Z,0.40
2018-12-05T07:25:14.744Z,0.40
2018-12-05T07:29:32.892Z,0.20
2018-12-05T07:33:38.817Z,-0.30
2018-12-05T07:37:43.667Z,0.10
2018-12-05T07:41:48.245Z,0.20
2018-12-05T07:45:53.170Z,0.10
2018-12-05T07:49:57.999Z,0.10
2018-12-05T07:54:03.111Z,0.20
2018-12-05T07:58:08.510Z,0.30
2018-12-05T08:02:13.744Z,0.10
2018-12-05T08:06:18.971Z,0.60
2018-12-05T08:10:24.533Z,0.70
2018-12-05T08:14:29.631Z,0.80
2018-12-05T08:18:35.041Z,0.90
2018-12-05T08:22:39.581Z,1.10
2018-12-05T08:26:44.799Z,1.40
2018-12-05T08:30:50.184Z,1.70
2018-12-05T08:34:55.105Z,2.00
2018-12-05T08:39:01.013Z,2.30
2018-12-05T08:43:05.443Z,2.50
2018-12-05T08:47:12.007Z,2.80
2018-12-05T08:51:17.207Z,2.90
2018-12-05T08:55:21.491Z,3.10
2018-12-05T08:59:26.049Z,3.20
2018-12-05T09:03:31.633Z,3.40
2018-12-05T09:07:37.169Z,3.70
2018-12-05T09:11:42.140Z,4.00
2018-12-05T09:15:47.587Z,4.40
2018-12-05T09:19:53.307Z,4.70
2018-12-05T09:23:57.665Z,4.90
2018-12-05T09:28:02.378Z,5.10
2018-12-05T09:32:08.027Z,5.20
2018-12-05T09:36:12.428Z,5.10
2018-12-05T09:40:16.829Z,5.30
2018-12-05T09:44:22.052Z,5.30
2018-12-05T09:48:27.002Z,5.40
2018-12-05T09:52:32.478Z,5.60
2018-12-05T09:56:36.951Z,5.70
2018-12-05T10:00:41.263Z,5.60
2018-12-05T10:04:46.395Z,5.60
2018-12-05T10:08:51.508Z,5.60
2018-12-05T10:12:56.900Z,5.90
2018-12-05T10:17:02.121Z,5.90
2018-12-05T10:21:07.774Z,5.90
2018-12-05T10:25:12.203Z,6.30
2018-12-05T10:29:17.465Z,5.80
2018-12-05T10:33:21.721Z,6.00
2018-12-05T10:37:26.095Z,5.90
2018-12-05T10:41:30.974Z,6.00
2018-12-05T10:45:36.595Z,6.00
2018-12-05T10:49:41.008Z,5.70
2018-12-05T10:53:46.367Z,5.80
2018-12-05T10:57:52.151Z,5.70
2018-12-05T11:02:01.857Z,5.80
2018-12-05T11:06:12.127Z,5.80
2018-12-05T11:10:21.711Z,5.70
2018-12-05T11:14:32.769Z,5.40
2018-12-05T11:18:42.741Z,5.10
2018-12-05T11:22:53.695Z,5.20
2018-12-05T11:26:59.638Z,5.30
2018-12-05T11:31:04.131Z,5.40
2018-12-05T11:35:09.064Z,5.60
2018-12-05T11:39:14.380Z,5.80
2018-12-05T11:43:19.689Z,5.80
2018-12-05T11:47:24.529Z,6.10
2018-12-05T11:51:30.609Z,5.80
2018-12-05T11:55:34.990Z,5.80
2018-12-05T11:59:40.449Z,5.70
2018-12-05T12:03:45.709Z,5.50
2018-12-05T12:07:51.275Z,5.90
2018-12-05T12:11:57.007Z,5.60
2018-12-05T12:16:02.370Z,5.60
2018-12-05T12:20:07.535Z,5.60
2018-12-05T12:24:13.657Z,5.50
2018-12-05T12:28:18.888Z,5.70
2018-12-05T12:32:24.434Z,5.70
2018-12-05T12:36:30.031Z,5.90
2018-12-05T12:40:35.371Z,6.30
2018-12-05T12:44:40.919Z,6.70
2018-12-05T12:48:45.714Z,6.50
2018-12-05T12:52:51.619Z,6.70
2018-12-05T12:56:55.969Z,6.40
2018-12-05T13:01:00.936Z,6.60
2018-12-05T13:05:06.562Z,6.70
2018-12-05T13:09:11.863Z,6.90
2018-12-05T13:13:16.624Z,6.50
2018-12-05T13:17:22.395Z,6.30
2018-12-05T13:21:27.122Z,6.20
2018-12-05T13:25:32.003Z,6.00
2018-12-05T13:29:37.133Z,5.70
2018-12-05T13:33:43.507Z,5.40
2018-12-05T13:37:47.719Z,5.50
2018-12-05T13:41:55.433Z,5.30
2018-12-05T13:46:01.342Z,5.20
2018-12-05T13:50:07.350Z,5.10
2018-12-05T13:54:12.373Z,5.10
2018-12-05T13:58:17.292Z,5.20
2018-12-05T14:02:21.785Z,5.10
2018-12-05T14:06:26.164Z,5.10
2018-12-05T14:10:39.534Z,4.80
2018-12-05T14:14:43.781Z,4.80
2018-12-05T14:18:48.199Z,4.60
2018-12-05T14:22:52.461Z,4.50
2018-12-05T14:26:56.611Z,4.50
2018-12-05T14:31:00.874Z,4.40
2018-12-05T14:35:05.491Z,4.30
2018-12-05T14:39:09.826Z,4.30
2018-12-05T14:43:14.019Z,4.20
2018-12-05T14:47:18.207Z,4.10
2018-12-05T14:51:22.429Z,4.00
2018-12-05T14:55:26.681Z,3.80
2018-12-05T14:59:30.860Z,3.70
2018-12-05T15:03:35.197Z,3.60
2018-12-05T15:07:39.581Z,3.40
2018-12-05T15:11:43.881Z,3.20
2018-12-05T15:15:48.186Z,3.20
2018-12-05T15:19:52.399Z,3.10
2018-12-05T15:23:56.677Z,3.00
2018-12-05T15:28:00.897Z,2.90
2018-12-05T15:32:05.361Z,2.80
2018-12-05T15:36:09.608Z,2.70
2018-12-05T15:40:13.910Z,2.50
2018-12-05T15:44:18.110Z,2.20
2018-12-05T15:48:22.355Z,2.10
2018-12-05T15:52:26.526Z,2.10
2018-12-05T15:56:30.818Z,2.10
2018-12-05T16:00:35.016Z,2.00
2018-12-05T16:04:39.176Z,2.10
2018-12-05T16:08:43.346Z,2.10
2018-12-05T16:12:47.569Z,2.10
2018-12-05T16:16:51.751Z,2.10
2018-12-05T16:20:55.975Z,2.20
2018-12-05T16:25:00.180Z,2.20
2018-12-05T16:29:04.390Z,2.20
2018-12-05T16:33:08.612Z,2.20
2018-12-05T16:37:12.803Z,2.20
2018-12-05T16:41:17.072Z,2.20
2018-12-05T16:45:21.263Z,2.20
2018-12-05T16:49:25.531Z,2.20
2018-12-05T16:53:29.715Z,2.20
2018-12-05T16:57:33.986Z,2.30
2018-12-05T17:01:38.287Z,2.30
2018-12-05T17:05:42.531Z,2.40
2018-12-05T17:09:46.696Z,2.30
2018-12-05T17:13:50.898Z,2.30
2018-12-05T17:17:55.091Z,2.30
2018-12-05T17:21:59.372Z,2.30
2018-12-05T17:26:04.114Z,2.30
2018-12-05T17:30:08.882Z,2.30
2018-12-05T17:34:13.027Z,2.30
2018-12-05T17:38:17.199Z,2.40
2018-12-05T17:42:22.121Z,2.30
2018-12-05T17:46:26.440Z,2.30
2018-12-05T17:50:30.608Z,2.40
2018-12-05T17:54:34.819Z,2.40
2018-12-05T17:58:38.974Z,2.40
2018-12-05T18:02:43.179Z,2.30
2018-12-05T18:06:47.376Z,2.30
2018-12-05T18:10:51.608Z,2.30
2018-12-05T18:14:55.813Z,2.30
2018-12-05T18:19:00.070Z,2.30
2018-12-05T18:23:04.223Z,2.20
2018-12-05T18:27:08.431Z,2.20
2018-12-05T18:31:13.878Z,2.20
2018-12-05T18:35:20.925Z,2.20
2018-12-05T18:39:27.424Z,2.20
2018-12-05T18:43:35.382Z,2.20
2018-12-05T18:47:43.718Z,2.20
2018-12-05T18:51:50.269Z,2.20
2018-12-05T18:55:56.401Z,2.10
2018-12-05T19:00:02.133Z,2.10
2018-12-05T19:04:08.202Z,2.10
2018-12-05T19:08:12.669Z,2.10
2018-12-05T19:12:17.702Z,2.10
2018-12-05T19:16:24.244Z,2.10
2018-12-05T19:20:29.327Z,2.10
2018-12-05T19:24:34.998Z,2.10
2018-12-05T19:28:40.610Z,2.10
2018-12-05T19:32:45.503Z,2.10
2018-12-05T19:36:50.834Z,2.10
2018-12-05T19:40:55.106Z,2.10
2018-12-05T19:45:00.029Z,2.10
2018-12-05T19:49:04.671Z,2.20
2018-12-05T19:53:09.837Z,2.10
2018-12-05T19:57:15.120Z,2.00
2018-12-05T20:01:20.074Z,2.00
2018-12-05T20:05:25.147Z,1.90
2018-12-05T20:09:30.404Z,1.80
2018-12-05T20:13:37.612Z,1.80
2018-12-05T20:17:42.560Z,1.70
2018-12-05T20:21:53.635Z,1.60
2018-12-05T20:25:59.625Z,1.60
2018-12-05T20:30:06.391Z,1.50
2018-12-05T20:34:11.255Z,1.50
2018-12-05T20:38:17.341Z,1.40
2018-12-05T20:42:22.880Z,1.50
2018-12-05T20:46:28.171Z,1.50
2018-12-05T20:50:32.903Z,1.50
2018-12-05T20:54:37.121Z,1.40
2018-12-05T20:58:42.666Z,1.40
2018-12-05T21:02:48.943Z,1.50
2018-12-05T21:06:57.687Z,1.40
2018-12-05T21:11:02.820Z,1.50
2018-12-05T21:15:08.317Z,1.50
2018-12-05T21:19:13.506Z,1.50
2018-12-05T21:23:18.408Z,1.50
2018-12-05T21:27:23.779Z,1.50
2018-12-05T21:31:29.520Z,1.50
2018-12-05T21:35:35.087Z,1.60
2018-12-05T21:39:40.560Z,1.60
2018-12-05T21:43:45.349Z,1.60
2018-12-05T21:47:50.076Z,1.60
2018-12-05T21:51:56.155Z,1.60
2018-12-05T21:56:02.120Z,1.60
2018-12-05T22:00:09.937Z,1.30
2018-12-05T22:04:14.119Z,1.80
2018-12-05T22:08:20.274Z,1.80
2018-12-05T22:12:26.907Z,1.70
2018-12-05T22:16:32.344Z,1.70
2018-12-05T22:20:37.964Z,1.70
2018-12-05T22:24:43.047Z,1.80
2018-12-05T22:28:48.234Z,1.80
2018-12-05T22:32:54.162Z,1.80
2018-12-05T22:36:58.896Z,1.80
2018-12-05T22:41:04.059Z,1.80
2018-12-05T22:45:12.687Z,1.80
2018-12-05T22:49:17.638Z,1.80
2018-12-05T22:53:22.990Z,1.70
2018-12-05T22:57:30.040Z,1.70
2018-12-05T23:01:35.403Z,1.70
2018-12-05T23:05:40.350Z,1.80
2018-12-05T23:09:45.516Z,1.80
2018-12-05T23:13:50.361Z,1.80
2018-12-05T23:17:55.786Z,1.70
2018-12-05T23:22:00.996Z,1.80
2018-12-05T23:26:06.610Z,1.80
2018-12-05T23:30:11.872Z,1.80
2018-12-05T23:34:16.490Z,1.80
2018-12-05T23:38:22.205Z,1.90
2018-12-05T23:42:27.542Z,1.90
2018-12-05T23:46:32.499Z,1.80
2018-12-05T23:50:37.507Z,1.80
2018-12-05T23:54:42.403Z,1.80
2018-12-05T23:58:46.882Z,1.80
